Time;durP1;ratioP1;P1;durP2;ratioP2;P2;SDS_P1;SDS_P2;PMS_P1;PMS_P2;Temp;Humidity;BMP_temperature;BMP_pressure;BME280_temperature;BME280_humidity;BME280_pressure;Samples;Min_cycle;Max_cycle;Signal;HPM_P1;HPM_P2
2023/06/23 00:01:20;;;;;;;2.38;2.17;;;27.10;60.10;27.50;100783.00;;;;4992040;28;20243;-50
2023/06/23 00:03:46;;;;;;;2.20;2.10;;;27.10;60.20;27.50;100777.00;;;;4990542;28;20255;-50
2023/06/23 00:06:12;;;;;;;2.63;2.20;;;27.10;60.10;27.50;100764.00;;;;4990949;28;20176;-50
2023/06/23 00:08:39;;;;;;;2.35;2.15;;;27.10;60.30;27.50;100763.00;;;;4990957;28;20553;-50
2023/06/23 00:11:08;;;;;;;2.38;2.17;;;27.10;60.10;27.50;100760.00;;;;4990734;28;20226;-51
2023/06/23 00:13:34;;;;;;;2.70;2.50;;;27.00;60.00;27.50;100757.00;;;;4990518;28;20200;-51
2023/06/23 00:16:04;;;;;;;2.40;2.10;;;27.00;60.10;27.50;100769.00;;;;4991051;28;20208;-50
2023/06/23 00:18:37;;;;;;;2.30;2.10;;;27.10;60.10;27.50;100766.00;;;;4990899;28;20168;-49
2023/06/23 00:21:05;;;;;;;2.72;2.53;;;27.00;59.90;27.50;100775.00;;;;4990926;28;20192;-50
2023/06/23 00:23:31;;;;;;;2.20;2.10;;;27.00;60.00;27.40;100775.00;;;;4990302;28;20242;-49
2023/06/23 00:26:00;;;;;;;2.50;2.30;;;27.00;60.00;27.40;100778.00;;;;4990758;28;20199;-50
2023/06/23 00:28:25;;;;;;;3.13;2.15;;;27.00;59.90;27.40;100790.00;;;;4990478;28;20647;-50
2023/06/23 00:30:52;;;;;;;2.30;2.10;;;27.00;60.00;27.40;100788.00;;;;4998330;28;20183;-51
2023/06/23 00:33:19;;;;;;;1.98;1.88;;;26.90;59.80;27.40;100792.00;;;;4996274;28;20172;-49
2023/06/23 00:35:44;;;;;;;2.83;2.30;;;27.00;59.90;27.40;100795.00;;;;4991041;28;20179;-50
2023/06/23 00:38:10;;;;;;;2.10;2.00;;;27.00;59.90;27.40;100810.00;;;;4990193;28;20247;-50
2023/06/23 00:40:36;;;;;;;2.30;2.20;;;27.00;60.00;27.40;100826.00;;;;4990113;28;20748;-50
2023/06/23 00:43:02;;;;;;;2.05;1.95;;;26.90;59.80;27.40;100821.00;;;;4989769;28;20200;-49
2023/06/23 00:45:29;;;;;;;2.50;2.30;;;26.90;59.80;27.40;100820.00;;;;4990326;28;20192;-50
2023/06/23 00:47:54;;;;;;;2.17;2.08;;;26.90;59.80;27.40;100823.00;;;;4988831;28;20258;-49
2023/06/23 00:50:22;;;;;;;2.58;2.30;;;26.90;59.80;27.40;100826.00;;;;4989024;28;20319;-50
2023/06/23 00:52:50;;;;;;;2.28;2.17;;;26.90;59.80;27.40;100828.00;;;;4990091;28;20180;-49
2023/06/23 00:55:20;;;;;;;2.45;2.25;;;26.90;60.00;27.30;100826.00;;;;4988223;28;20664;-49
2023/06/23 00:57:46;;;;;;;2.20;2.10;;;26.90;60.00;27.30;100830.00;;;;4989847;28;20198;-51
2023/06/23 01:00:19;;;;;;;2.13;2.03;;;26.90;60.00;27.30;100797.00;;;;4988844;28;20627;-50
2023/06/23 01:02:48;;;;;;;2.13;2.00;;;26.80;59.90;27.30;100835.00;;;;4989710;28;20207;-54
2023/06/23 01:05:30;;;;;;;2.50;2.30;;;26.90;59.90;27.30;100847.00;;;;4989712;28;20279;-50
2023/06/23 01:08:31;;;;;;;2.63;2.42;;;26.90;60.00;27.30;100857.00;;;;4989725;28;20223;-50
2023/06/23 01:11:22;;;;;;;2.20;2.10;;;26.90;59.90;27.30;100859.00;;;;4988497;28;20570;-49
2023/06/23 01:14:00;;;;;;;2.20;2.10;;;26.80;59.90;27.30;100871.00;;;;4987598;28;20199;-50
2023/06/23 01:16:29;;;;;;;2.38;2.17;;;26.90;59.80;27.20;100877.00;;;;4988313;28;20203;-49
2023/06/23 01:19:37;;;;;;;2.40;2.20;;;26.90;60.00;27.20;100878.00;;;;4988108;28;20200;-50
2023/06/23 01:22:27;;;;;;;2.30;2.10;;;26.80;59.80;27.20;100887.00;;;;4985281;28;20717;-50
2023/06/23 01:25:11;;;;;;;2.35;2.15;;;26.80;59.80;27.20;100899.00;;;;4986973;28;20211;-49
2023/06/23 01:28:10;;;;;;;2.10;2.00;;;26.80;59.90;27.20;100895.00;;;;4989484;28;20192;-52
2023/06/23 01:30:36;;;;;;;2.40;2.20;;;26.80;59.80;27.20;100894.00;;;;4989386;28;20172;-51
2023/06/23 01:33:25;;;;;;;2.22;2.03;;;26.80;59.80;27.20;100907.00;;;;4987721;28;20540;-51
2023/06/23 01:36:12;;;;;;;2.30;2.10;;;26.80;60.50;27.20;100911.00;;;;4985180;28;20192;-50
2023/06/23 01:38:41;;;;;;;2.40;2.08;;;26.80;59.80;27.20;100911.00;;;;4971614;28;20184;-51
2023/06/23 01:41:23;;;;;;;2.40;2.20;;;26.80;59.80;27.20;100898.00;;;;4987927;28;20181;-51
2023/06/23 01:43:50;;;;;;;2.38;2.20;;;26.80;59.80;27.20;100908.00;;;;4988318;28;20211;-51
2023/06/23 01:46:18;;;;;;;2.22;2.13;;;26.80;59.80;27.20;100906.00;;;;5000397;28;20311;-51
2023/06/23 01:48:46;;;;;;;3.63;2.22;;;26.80;59.80;27.20;100927.00;;;;4993668;28;20311;-50
2023/06/23 01:51:12;;;;;;;2.40;2.20;;;26.80;59.80;27.20;100917.00;;;;4972186;28;20187;-50
2023/06/23 01:53:37;;;;;;;2.47;2.28;;;26.70;59.70;27.20;100929.00;;;;4994170;28;20196;-54
2023/06/23 01:56:04;;;;;;;2.13;2.03;;;26.70;59.70;27.10;100936.00;;;;4992914;28;20188;-51
2023/06/23 01:58:32;;;;;;;2.45;2.25;;;26.80;59.80;27.10;100943.00;;;;4988113;28;20172;-50
2023/06/23 02:00:57;;;;;;;3.20;2.25;;;26.80;59.80;27.10;100945.00;;;;4999133;28;20604;-50
2023/06/23 02:03:23;;;;;;;2.20;2.10;;;26.70;59.70;27.10;100953.00;;;;4993760;28;20216;-51
2023/06/23 02:05:49;;;;;;;2.65;2.10;;;26.70;59.70;27.10;100958.00;;;;4987916;28;20636;-50
2023/06/23 02:08:15;;;;;;;2.92;2.20;;;26.70;59.70;27.10;100957.00;;;;4987877;28;20673;-50
2023/06/23 02:10:40;;;;;;;3.80;2.20;;;26.70;59.70;27.10;100961.00;;;;4987759;28;20175;-52
2023/06/23 02:13:06;;;;;;;3.47;2.47;;;26.60;59.60;27.10;100960.00;;;;4987489;28;20300;-49
2023/06/23 02:15:32;;;;;;;3.17;2.30;;;26.60;59.60;27.10;100962.00;;;;4987746;28;20199;-52
2023/06/23 02:17:58;;;;;;;2.60;2.40;;;26.70;59.60;27.10;100956.00;;;;4988059;28;20643;-50
2023/06/23 02:20:24;;;;;;;2.92;2.13;;;26.60;59.40;27.00;100948.00;;;;4987747;28;20176;-50
2023/06/23 02:22:50;;;;;;;3.70;2.25;;;26.60;59.50;27.00;100951.00;;;;4988072;28;20562;-49
2023/06/23 02:25:16;;;;;;;2.45;2.25;;;26.50;59.30;27.00;100964.00;;;;4988869;28;20218;-50
2023/06/23 02:27:42;;;;;;;2.30;2.10;;;26.60;59.40;27.00;100974.00;;;;4988838;28;20192;-50
2023/06/23 02:30:08;;;;;;;3.47;2.28;;;26.60;59.40;27.00;100975.00;;;;4988958;28;20638;-50
2023/06/23 02:32:34;;;;;;;2.60;2.40;;;26.60;59.40;27.00;100982.00;;;;4987580;28;20694;-50
2023/06/23 02:35:00;;;;;;;3.70;2.50;;;26.50;59.40;27.00;100988.00;;;;4988306;28;20192;-50
2023/06/23 02:37:25;;;;;;;3.38;2.40;;;26.50;59.30;27.00;100992.00;;;;4987811;28;20165;-49
2023/06/23 02:39:58;;;;;;;2.50;2.30;;;26.50;59.30;27.00;100997.00;;;;4987628;28;20180;-49
2023/06/23 02:42:31;;;;;;;2.97;2.67;;;26.50;59.30;26.90;100988.00;;;;4987294;28;20180;-50
2023/06/23 02:45:05;;;;;;;5.13;2.20;;;26.50;59.30;26.90;100996.00;;;;4986496;28;20208;-50
2023/06/23 02:47:36;;;;;;;2.80;2.50;;;26.50;59.20;26.90;100987.00;;;;4970871;28;20583;-52
2023/06/23 02:50:03;;;;;;;3.92;2.40;;;26.50;59.20;26.90;100956.00;;;;4988794;28;20198;-51
2023/06/23 02:52:34;;;;;;;2.50;2.30;;;26.50;59.90;26.90;100986.00;;;;4987241;28;20180;-51
2023/06/23 02:55:00;;;;;;;2.42;2.22;;;26.50;59.20;26.90;100995.00;;;;4986840;28;20247;-50
2023/06/23 02:57:26;;;;;;;2.60;2.40;;;26.50;59.20;26.90;101005.00;;;;4987116;28;20176;-50
2023/06/23 02:59:53;;;;;;;3.00;2.20;;;26.40;59.10;26.90;101005.00;;;;4987159;28;20185;-50
2023/06/23 03:02:22;;;;;;;2.65;2.45;;;26.40;59.00;26.80;101008.00;;;;4990176;28;20172;-50
2023/06/23 03:04:48;;;;;;;2.55;2.30;;;26.40;59.00;26.80;101011.00;;;;4991421;28;20208;-50
2023/06/23 03:07:15;;;;;;;4.32;2.60;;;26.40;59.00;26.80;101012.00;;;;4993039;28;20168;-51
2023/06/23 03:09:42;;;;;;;2.50;2.30;;;26.40;59.10;26.80;101020.00;;;;4991950;28;20619;-51
2023/06/23 03:12:08;;;;;;;2.70;2.50;;;26.40;59.10;26.80;101022.00;;;;5000577;28;20205;-49
2023/06/23 03:14:34;;;;;;;2.50;2.30;;;26.40;59.10;26.80;101017.00;;;;5011377;28;20674;-49
2023/06/23 03:17:06;;;;;;;3.53;2.53;;;26.40;59.10;26.80;101025.00;;;;5012011;28;20577;-49
2023/06/23 03:19:40;;;;;;;2.60;2.40;;;26.40;59.00;26.80;101029.00;;;;4995082;28;20180;-51
2023/06/23 03:22:18;;;;;;;3.30;2.65;;;26.30;58.90;26.80;101028.00;;;;5012285;28;20182;-50
2023/06/23 03:24:47;;;;;;;2.40;2.20;;;26.30;58.90;26.80;101034.00;;;;4993815;28;20263;-50
2023/06/23 03:27:15;;;;;;;2.70;2.50;;;26.30;59.00;26.60;101045.00;;;;4995037;28;20203;-50
2023/06/23 03:29:48;;;;;;;2.47;2.28;;;26.30;59.00;26.70;101045.00;;;;4995106;28;20579;-50
2023/06/23 03:32:18;;;;;;;3.85;2.40;;;26.30;59.00;26.50;101054.00;;;;4991861;28;20192;-50
2023/06/23 03:34:52;;;;;;;2.88;2.40;;;26.30;59.00;26.70;101054.00;;;;4967885;28;20583;-49
2023/06/23 03:37:18;;;;;;;6.15;2.42;;;26.30;58.90;26.70;101053.00;;;;4990158;28;20600;-51
2023/06/23 03:39:44;;;;;;;5.43;2.45;;;26.30;59.20;26.70;101063.00;;;;4990801;28;20255;-50
2023/06/23 03:42:10;;;;;;;3.17;2.85;;;26.30;59.10;26.70;101069.00;;;;4990460;28;20180;-50
2023/06/23 03:44:46;;;;;;;3.33;2.67;;;26.30;59.00;26.70;101084.00;;;;4989758;28;20204;-56
2023/06/23 03:47:20;;;;;;;2.80;2.50;;;26.30;59.00;26.70;101071.00;;;;5006495;28;20251;-51
2023/06/23 03:49:52;;;;;;;2.97;2.40;;;26.30;58.90;26.60;101076.00;;;;4991850;28;20168;-51
2023/06/23 03:52:18;;;;;;;2.70;2.50;;;26.30;59.00;26.60;101074.00;;;;5003170;28;20176;-49
2023/06/23 03:54:45;;;;;;;2.70;2.30;;;26.20;58.90;26.60;101091.00;;;;5008476;28;20250;-53
2023/06/23 03:57:17;;;;;;;2.53;2.33;;;26.20;58.80;26.60;101095.00;;;;4990858;28;20713;-50
2023/06/23 03:59:43;;;;;;;2.92;2.55;;;26.20;58.90;26.60;101105.00;;;;4992901;28;20181;-57
2023/06/23 04:02:09;;;;;;;2.75;2.47;;;26.20;58.90;26.60;101096.00;;;;4991036;28;20231;-49
2023/06/23 04:04:34;;;;;;;2.30;2.20;;;26.20;58.80;26.60;101101.00;;;;4990806;28;20247;-49
2023/06/23 04:07:00;;;;;;;3.10;2.25;;;26.20;58.90;26.60;101112.00;;;;5000978;28;20196;-50
2023/06/23 04:09:26;;;;;;;2.45;2.25;;;26.20;58.80;26.50;101123.00;;;;5007641;28;20210;-50
2023/06/23 04:11:52;;;;;;;3.00;2.80;;;26.20;58.80;26.50;101119.00;;;;5010391;28;20175;-49
2023/06/23 04:14:18;;;;;;;3.10;2.80;;;26.10;58.80;26.50;101110.00;;;;5010124;28;20227;-51
2023/06/23 04:16:43;;;;;;;3.35;3.05;;;26.10;58.80;26.50;101123.00;;;;5010280;28;20192;-51
2023/06/23 04:19:10;;;;;;;5.45;3.58;;;26.00;58.70;26.40;101118.00;;;;5010209;28;20176;-50
2023/06/23 04:21:36;;;;;;;4.85;4.15;;;25.90;59.00;26.30;101114.00;;;;5009911;28;20218;-49
2023/06/23 04:24:03;;;;;;;5.43;3.88;;;25.90;58.80;26.20;101122.00;;;;4992747;28;20610;-50
2023/06/23 04:26:29;;;;;;;5.00;4.30;;;25.90;58.70;26.20;101088.00;;;;5009591;28;20176;-50
2023/06/23 04:28:55;;;;;;;12.07;5.22;;;25.90;58.60;26.10;101128.00;;;;5009740;28;20184;-50
2023/06/23 04:31:21;;;;;;;9.23;5.03;;;25.90;58.40;26.10;101139.00;;;;5009236;28;20201;-51
2023/06/23 04:33:47;;;;;;;14.25;5.15;;;25.80;58.50;26.00;101142.00;;;;5009177;28;20716;-51
2023/06/23 04:36:15;;;;;;;10.18;5.03;;;25.70;58.50;26.00;101148.00;;;;5009772;28;20187;-50
2023/06/23 04:38:53;;;;;;;9.65;4.75;;;25.80;58.60;26.00;101157.00;;;;5010745;28;20176;-49
2023/06/23 04:41:20;;;;;;;7.00;4.68;;;25.70;58.50;25.90;101153.00;;;;5007887;28;20191;-49
2023/06/23 04:43:50;;;;;;;8.07;4.20;;;25.70;58.70;25.90;101162.00;;;;5009067;28;20207;-51
2023/06/23 04:46:22;;;;;;;12.50;4.90;;;25.70;58.50;25.90;101158.00;;;;5009071;28;20247;-49
2023/06/23 04:48:58;;;;;;;6.38;4.35;;;25.60;58.60;25.90;101158.00;;;;5008688;28;20168;-50
2023/06/23 04:51:30;;;;;;;5.75;4.05;;;25.60;58.60;25.90;101170.00;;;;5008148;28;20186;-49
2023/06/23 04:54:02;;;;;;;5.13;4.20;;;25.60;58.60;25.90;101153.00;;;;4999753;28;20207;-50
2023/06/23 04:56:32;;;;;;;5.13;4.10;;;25.50;58.60;25.90;101174.00;;;;5009257;28;20195;-49
2023/06/23 04:58:58;;;;;;;6.13;4.35;;;25.50;58.60;25.90;101161.00;;;;5009062;28;20181;-50
2023/06/23 05:01:24;;;;;;;5.45;4.07;;;25.50;58.60;25.80;101162.00;;;;5010074;28;20171;-50
2023/06/23 05:03:50;;;;;;;6.28;4.47;;;25.50;58.60;25.80;101165.00;;;;5008124;28;20238;-50
2023/06/23 05:06:19;;;;;;;4.93;3.90;;;25.50;58.60;25.80;101169.00;;;;5008996;28;20172;-51
2023/06/23 05:08:47;;;;;;;4.55;4.15;;;25.50;58.70;25.80;101184.00;;;;5009038;28;20164;-49
2023/06/23 05:11:13;;;;;;;5.30;4.38;;;25.40;58.70;25.80;101191.00;;;;5008958;28;20278;-49
2023/06/23 05:13:39;;;;;;;5.55;3.92;;;25.40;58.80;25.70;101199.00;;;;5008657;28;20278;-50
2023/06/23 05:16:06;;;;;;;4.40;4.00;;;25.50;58.90;25.70;101194.00;;;;5010617;28;20227;-49
2023/06/23 05:18:32;;;;;;;5.03;4.10;;;25.40;58.90;25.70;101208.00;;;;5008963;28;20207;-50
2023/06/23 05:20:59;;;;;;;4.32;3.92;;;25.40;58.90;25.70;101203.00;;;;5009119;28;20254;-49
2023/06/23 05:23:25;;;;;;;4.72;4.32;;;25.40;58.90;25.70;101213.00;;;;5007973;28;20207;-51
2023/06/23 05:25:51;;;;;;;4.43;4.03;;;25.40;58.90;25.70;101216.00;;;;5008597;28;20214;-55
2023/06/23 05:28:19;;;;;;;5.05;4.63;;;25.30;58.90;25.70;101214.00;;;;5015402;28;20220;-50
2023/06/23 05:30:45;;;;;;;6.47;5.15;;;25.40;58.90;25.60;101216.00;;;;5010340;28;20225;-49
2023/06/23 05:33:11;;;;;;;5.38;4.88;;;25.40;58.90;25.60;101227.00;;;;5007828;28;20262;-52
2023/06/23 05:35:37;;;;;;;5.50;4.75;;;25.40;58.80;25.60;101230.00;;;;5009019;28;20171;-51
2023/06/23 05:38:03;;;;;;;5.15;4.65;;;25.30;58.80;25.60;101222.00;;;;5008339;28;20164;-51
2023/06/23 05:40:29;;;;;;;5.28;4.78;;;25.40;58.90;25.60;101222.00;;;;5008354;28;20172;-50
2023/06/23 05:42:54;;;;;;;5.30;4.50;;;25.30;58.90;25.60;101231.00;;;;5008520;28;20172;-50
2023/06/23 05:45:20;;;;;;;5.15;4.65;;;25.30;59.60;25.60;101236.00;;;;5009249;28;20266;-50
2023/06/23 05:47:51;;;;;;;5.20;4.80;;;25.20;58.90;25.60;101232.00;;;;5009756;28;20518;-50
2023/06/23 05:50:23;;;;;;;5.97;4.97;;;25.20;59.10;25.50;101230.00;;;;5009511;28;20168;-50
2023/06/23 05:53:10;;;;;;;5.28;4.78;;;25.20;59.00;25.50;101234.00;;;;5013502;28;20208;-50
2023/06/23 05:55:40;;;;;;;5.65;5.15;;;25.10;58.90;25.50;101236.00;;;;5017501;28;20167;-50
2023/06/23 05:58:08;;;;;;;6.45;5.82;;;25.20;59.10;25.50;101236.00;;;;5009581;28;20168;-50
2023/06/23 06:00:42;;;;;;;6.75;6.07;;;25.30;59.20;25.50;101245.00;;;;5008396;28;20187;-50
2023/06/23 06:03:12;;;;;;;6.38;5.88;;;25.20;58.70;25.40;101246.00;;;;5008701;28;20263;-50
2023/06/23 06:05:38;;;;;;;6.25;5.65;;;25.20;58.80;25.50;101252.00;;;;5008642;28;20167;-50
2023/06/23 06:08:05;;;;;;;6.32;5.82;;;25.10;59.00;25.50;101231.00;;;;5017186;28;20668;-51
2023/06/23 06:10:31;;;;;;;6.47;5.97;;;25.10;59.20;25.40;101259.00;;;;5012908;28;20168;-49
2023/06/23 06:12:57;;;;;;;6.47;5.88;;;25.10;59.00;25.40;101254.00;;;;5008451;28;20669;-50
2023/06/23 06:15:22;;;;;;;6.95;6.32;;;25.10;59.10;25.40;101264.00;;;;5007471;28;20879;-49
2023/06/23 06:17:48;;;;;;;6.90;6.30;;;25.10;59.20;25.40;101250.00;;;;5009373;28;20168;-50
2023/06/23 06:20:14;;;;;;;7.00;6.40;;;25.10;59.10;25.40;101255.00;;;;5008364;28;20191;-50
2023/06/23 06:22:41;;;;;;;6.60;6.10;;;25.00;59.30;25.40;101271.00;;;;5007801;28;20182;-51
2023/06/23 06:25:09;;;;;;;7.07;6.20;;;25.00;59.30;25.40;101270.00;;;;5006985;28;20887;-50
2023/06/23 06:27:34;;;;;;;7.05;6.55;;;25.00;59.50;25.40;101277.00;;;;5008096;28;20665;-50
2023/06/23 06:30:02;;;;;;;7.45;6.85;;;25.00;59.40;25.40;101268.00;;;;5008235;28;20175;-51
2023/06/23 06:32:29;;;;;;;6.97;6.45;;;25.00;59.50;25.40;101280.00;;;;5007602;28;20198;-50
2023/06/23 06:34:56;;;;;;;7.20;6.60;;;25.00;59.60;25.40;101277.00;;;;5005894;28;20192;-55
2023/06/23 06:37:24;;;;;;;6.85;6.25;;;25.00;59.60;25.40;101287.00;;;;5008122;28;20183;-50
2023/06/23 06:39:49;;;;;;;7.50;6.90;;;25.00;59.60;25.30;101290.00;;;;5011490;28;20628;-51
2023/06/23 06:42:15;;;;;;;7.90;7.30;;;25.00;59.50;25.30;101285.00;;;;5011669;28;20199;-50
2023/06/23 06:44:41;;;;;;;8.48;7.68;;;25.00;59.70;25.30;101291.00;;;;5011434;28;20697;-49
2023/06/23 06:47:06;;;;;;;8.10;7.28;;;25.00;59.60;25.30;101305.00;;;;5012003;28;20176;-50
2023/06/23 06:49:32;;;;;;;7.35;6.75;;;25.00;59.70;25.30;101299.00;;;;5011060;28;20180;-51
2023/06/23 06:51:59;;;;;;;8.17;7.47;;;24.90;59.60;25.30;101314.00;;;;5011136;28;20172;-50
2023/06/23 06:54:26;;;;;;;8.13;7.38;;;24.90;60.00;25.30;101295.00;;;;5010137;28;20202;-49
2023/06/23 06:56:54;;;;;;;7.38;6.88;;;24.90;60.00;25.30;101324.00;;;;5011440;28;20199;-50
2023/06/23 06:59:20;;;;;;;7.50;6.90;;;24.90;59.80;25.30;101316.00;;;;5011108;28;20206;-50
2023/06/23 07:01:45;;;;;;;8.95;8.25;;;24.90;60.00;25.30;101325.00;;;;5011505;28;20176;-50
2023/06/23 07:04:11;;;;;;;8.20;7.40;;;24.90;60.00;25.30;101320.00;;;;5010301;28;20215;-49
2023/06/23 07:06:37;;;;;;;8.07;7.38;;;24.80;59.80;25.30;101325.00;;;;5010952;28;20168;-51
2023/06/23 07:09:04;;;;;;;7.78;7.07;;;24.90;60.00;25.30;101320.00;;;;5010884;28;20176;-50
2023/06/23 07:11:31;;;;;;;7.68;7.03;;;24.80;60.00;25.30;101329.00;;;;5012274;28;20186;-50
2023/06/23 07:13:58;;;;;;;7.10;6.50;;;24.80;59.90;25.30;101333.00;;;;5011468;28;20204;-50
2023/06/23 07:16:30;;;;;;;7.03;6.43;;;24.80;59.90;25.30;101334.00;;;;5012020;28;20179;-51
2023/06/23 07:18:56;;;;;;;6.70;6.20;;;24.90;60.00;25.30;101332.00;;;;5012099;28;20190;-50
2023/06/23 07:21:22;;;;;;;7.07;6.57;;;24.80;59.90;25.30;101338.00;;;;5011928;28;20180;-50
2023/06/23 07:23:48;;;;;;;7.53;6.93;;;24.80;60.10;25.20;101358.00;;;;5010946;28;20203;-49
2023/06/23 07:26:13;;;;;;;7.20;6.50;;;24.80;59.90;25.30;101358.00;;;;5011827;28;20191;-50
2023/06/23 07:28:39;;;;;;;7.00;6.45;;;24.80;59.90;25.30;101352.00;;;;5011763;28;20183;-48
2023/06/23 07:31:05;;;;;;;7.83;6.33;;;24.90;60.90;25.30;101350.00;;;;5003803;28;20728;-46
2023/06/23 07:33:31;;;;;;;10.05;5.85;;;24.90;60.50;25.30;101369.00;;;;4999542;28;20247;-46
2023/06/23 07:35:56;;;;;;;6.20;5.60;;;25.00;60.30;25.30;101365.00;;;;4990905;28;20280;-47
2023/06/23 07:38:22;;;;;;;6.30;5.80;;;25.00;60.00;25.40;101368.00;;;;5007208;28;20188;-45
2023/06/23 07:40:48;;;;;;;7.53;6.40;;;25.00;60.00;25.40;101360.00;;;;5011240;28;20199;-46
2023/06/23 07:43:14;;;;;;;6.60;6.10;;;25.00;60.00;25.40;101367.00;;;;5009600;28;20218;-47
2023/06/23 07:45:40;;;;;;;6.33;5.80;;;24.90;59.80;25.30;101373.00;;;;4993460;28;20207;-46
2023/06/23 07:48:05;;;;;;;6.30;5.70;;;24.90;60.00;25.30;101372.00;;;;5010776;28;20640;-46
2023/06/23 07:50:31;;;;;;;5.97;5.40;;;25.00;60.10;25.30;101372.00;;;;5015103;28;20167;-52
2023/06/23 07:52:57;;;;;;;5.90;5.30;;;25.00;60.10;25.30;101368.00;;;;5012979;28;20169;-46
2023/06/23 07:55:23;;;;;;;5.60;5.10;;;25.00;60.20;25.30;101368.00;;;;5008933;28;20203;-46
2023/06/23 07:57:49;;;;;;;5.33;4.93;;;25.00;59.90;25.40;101374.00;;;;5018346;28;20203;-46
2023/06/23 08:00:16;;;;;;;5.90;5.40;;;25.00;59.70;25.40;101372.00;;;;5012609;28;20168;-46
2023/06/23 08:02:42;;;;;;;5.85;5.35;;;25.00;60.10;25.40;101367.00;;;;5012267;28;20202;-48
2023/06/23 08:05:09;;;;;;;6.53;6.03;;;24.90;60.00;25.30;101379.00;;;;5012104;28;20715;-46
2023/06/23 08:07:35;;;;;;;5.35;4.95;;;24.90;60.30;25.30;101381.00;;;;5009766;28;20238;-46
2023/06/23 08:10:01;;;;;;;5.70;5.20;;;24.90;60.30;25.30;101379.00;;;;5018550;28;20179;-46
2023/06/23 08:12:27;;;;;;;5.00;4.60;;;25.00;60.10;25.20;101378.00;;;;5014168;28;20180;-47
2023/06/23 08:14:53;;;;;;;5.40;4.88;;;24.90;60.00;25.30;101381.00;;;;5010556;28;20202;-46
2023/06/23 08:17:18;;;;;;;5.38;4.90;;;25.00;60.10;25.30;101378.00;;;;5010036;28;20547;-46
2023/06/23 08:19:44;;;;;;;5.70;5.20;;;25.00;60.10;25.30;101377.00;;;;5010793;28;20616;-46
2023/06/23 08:22:10;;;;;;;7.10;5.17;;;25.00;60.10;25.30;101379.00;;;;5010328;28;20548;-45
2023/06/23 08:24:36;;;;;;;4.80;4.35;;;25.00;59.90;25.40;101386.00;;;;4992334;28;20234;-46
2023/06/23 08:27:01;;;;;;;5.97;4.68;;;25.00;60.00;25.40;101367.00;;;;4994458;28;20173;-46
2023/06/23 08:29:27;;;;;;;6.63;4.68;;;25.00;60.20;25.40;101381.00;;;;4989863;28;20184;-47
2023/06/23 08:31:53;;;;;;;6.05;5.05;;;25.00;60.30;25.40;101388.00;;;;4990698;28;20179;-47
2023/06/23 08:34:19;;;;;;;6.22;5.28;;;24.90;60.50;25.40;101385.00;;;;4990302;28;20223;-46
2023/06/23 08:36:45;;;;;;;5.45;4.95;;;24.90;60.40;25.30;101389.00;;;;4988221;28;20180;-46
2023/06/23 08:39:10;;;;;;;5.63;4.70;;;24.90;60.30;25.40;101392.00;;;;4991022;28;20195;-45
2023/06/23 08:41:39;;;;;;;5.77;4.70;;;25.00;60.20;25.40;101397.00;;;;4990873;28;20169;-46
2023/06/23 08:44:05;;;;;;;6.03;4.60;;;25.00;60.40;25.40;101406.00;;;;4991220;28;20295;-43
2023/06/23 08:46:33;;;;;;;5.35;4.30;;;25.00;60.60;25.40;101410.00;;;;4989855;28;20264;-44
2023/06/23 08:49:06;;;;;;;6.15;4.68;;;25.00;60.20;25.50;101407.00;;;;4991311;28;20168;-43
2023/06/23 08:51:32;;;;;;;5.65;4.32;;;25.00;60.20;25.50;101420.00;;;;4990419;28;20168;-43
2023/06/23 08:53:58;;;;;;;4.35;4.05;;;25.00;60.20;25.50;101409.00;;;;4990895;28;20196;-43
2023/06/23 08:56:25;;;;;;;4.80;4.27;;;25.00;60.10;25.50;101410.00;;;;4989247;28;20220;-44
2023/06/23 08:58:51;;;;;;;4.85;4.35;;;25.00;60.10;25.50;101404.00;;;;4989833;28;20219;-43
2023/06/23 09:01:16;;;;;;;4.10;3.70;;;25.00;60.40;25.60;101412.00;;;;4989843;28;20650;-45
2023/06/23 09:03:42;;;;;;;5.10;4.00;;;25.10;60.30;25.60;101415.00;;;;4990356;28;20208;-44
2023/06/23 09:06:09;;;;;;;4.88;3.90;;;25.10;60.40;25.60;101423.00;;;;4990938;28;20276;-45
2023/06/23 09:08:35;;;;;;;5.93;4.53;;;25.10;60.50;25.60;101420.00;;;;4990800;28;20295;-44
2023/06/23 09:11:01;;;;;;;4.57;4.00;;;25.10;60.60;25.60;101431.00;;;;4973588;28;20266;-43
2023/06/23 09:13:27;;;;;;;4.63;4.22;;;25.10;60.50;25.60;101431.00;;;;4989372;28;20173;-44
2023/06/23 09:15:54;;;;;;;4.10;3.80;;;25.10;60.60;25.60;101436.00;;;;4990656;28;20168;-43
2023/06/23 09:18:20;;;;;;;4.25;3.80;;;25.10;60.50;25.70;101438.00;;;;4990457;28;20528;-43
2023/06/23 09:20:49;;;;;;;4.20;3.80;;;25.10;60.60;25.70;101443.00;;;;4990605;28;20183;-44
2023/06/23 09:23:16;;;;;;;3.80;3.50;;;25.10;60.60;25.70;101451.00;;;;4990057;28;20196;-43
2023/06/23 09:25:44;;;;;;;3.90;3.60;;;25.10;60.70;25.70;101446.00;;;;4989307;28;20164;-44
2023/06/23 09:28:29;;;;;;;4.35;3.95;;;25.10;60.70;25.70;101453.00;;;;4990093;28;20180;-42
2023/06/23 09:30:59;;;;;;;5.25;3.80;;;25.10;60.70;25.70;101443.00;;;;4990156;28;20673;-44
2023/06/23 09:33:25;;;;;;;4.20;3.90;;;25.10;60.60;25.70;101450.00;;;;4990051;28;20176;-44
2023/06/23 09:35:55;;;;;;;4.00;3.70;;;25.20;60.70;25.70;101441.00;;;;4988921;28;20176;-43
2023/06/23 09:38:23;;;;;;;4.30;3.53;;;25.10;60.60;25.70;101450.00;;;;4989049;28;20172;-43
2023/06/23 09:41:01;;;;;;;4.10;3.80;;;25.20;61.20;25.80;101444.00;;;;4990163;28;20580;-43
2023/06/23 09:43:27;;;;;;;4.00;3.63;;;25.10;60.70;25.70;101452.00;;;;4989034;28;20204;-44
2023/06/23 09:45:52;;;;;;;3.80;3.50;;;25.10;60.70;25.80;101448.00;;;;4990418;28;20171;-45
2023/06/23 09:48:18;;;;;;;3.97;3.67;;;25.20;60.80;25.80;101456.00;;;;4990951;28;20172;-43
2023/06/23 09:50:44;;;;;;;3.95;3.65;;;25.20;60.80;25.80;101454.00;;;;4990430;28;20494;-43
2023/06/23 09:53:12;;;;;;;3.97;3.67;;;25.20;60.80;25.80;101459.00;;;;4989997;28;20180;-43
2023/06/23 09:55:37;;;;;;;3.90;3.60;;;25.20;60.90;25.80;101467.00;;;;4990043;28;20172;-44
2023/06/23 09:58:04;;;;;;;3.65;3.35;;;25.20;60.90;25.80;101462.00;;;;4993187;28;20187;-44
2023/06/23 10:00:30;;;;;;;4.20;3.80;;;25.20;60.90;25.70;101464.00;;;;4986995;28;20674;-44
2023/06/23 10:02:59;;;;;;;3.80;3.50;;;25.20;60.90;25.80;101464.00;;;;4989949;28;20172;-44
2023/06/23 10:05:25;;;;;;;3.92;3.63;;;25.20;61.00;25.90;101472.00;;;;4990672;28;20301;-44
2023/06/23 10:08:08;;;;;;;3.90;3.60;;;25.30;61.10;25.90;101470.00;;;;4990459;28;20663;-43
2023/06/23 10:10:42;;;;;;;3.88;3.58;;;25.20;61.10;25.90;101476.00;;;;4990449;28;20168;-43
2023/06/23 10:13:08;;;;;;;3.75;3.45;;;25.30;61.30;25.90;101476.00;;;;4995516;28;20223;-43
2023/06/23 10:15:35;;;;;;;3.80;3.50;;;25.30;61.10;25.90;101472.00;;;;5001834;28;20169;-44
2023/06/23 10:18:01;;;;;;;3.80;3.50;;;25.30;61.20;25.90;101480.00;;;;5004527;28;20204;-51
2023/06/23 10:20:27;;;;;;;3.95;3.58;;;25.30;61.30;25.90;101485.00;;;;4994287;28;20307;-44
2023/06/23 10:22:53;;;;;;;3.97;3.67;;;25.30;61.30;26.00;101472.00;;;;4993063;28;20172;-45
2023/06/23 10:25:18;;;;;;;3.60;3.30;;;25.40;61.30;26.00;101480.00;;;;4992596;28;20188;-43
2023/06/23 10:27:44;;;;;;;3.75;3.45;;;25.40;61.30;26.00;101484.00;;;;4992543;28;20180;-44
2023/06/23 10:30:11;;;;;;;3.78;3.47;;;25.40;61.30;26.00;101480.00;;;;4992890;28;20341;-44
2023/06/23 10:32:37;;;;;;;3.60;3.20;;;25.40;61.30;26.00;101489.00;;;;4976518;28;20169;-44
2023/06/23 10:35:09;;;;;;;3.83;3.53;;;25.40;61.30;26.00;101477.00;;;;4993248;28;20291;-44
2023/06/23 10:37:35;;;;;;;3.60;3.30;;;25.40;61.30;26.00;101488.00;;;;4993871;28;20227;-44
2023/06/23 10:40:05;;;;;;;3.92;3.53;;;25.40;61.30;26.10;101485.00;;;;4992570;28;20168;-43
2023/06/23 10:42:33;;;;;;;3.72;3.42;;;25.40;61.30;26.10;101493.00;;;;4968413;28;20177;-44
2023/06/23 10:44:59;;;;;;;3.78;3.47;;;25.50;61.50;26.10;101492.00;;;;4991714;28;20228;-44
2023/06/23 10:47:26;;;;;;;3.80;3.50;;;25.50;61.40;26.10;101484.00;;;;4993506;28;20681;-43
2023/06/23 10:49:51;;;;;;;3.55;3.20;;;25.50;61.40;26.10;101494.00;;;;4993606;28;20299;-44
2023/06/23 10:52:17;;;;;;;3.60;3.30;;;25.50;61.50;26.10;101494.00;;;;4992319;28;20252;-44